sensor_id;sensor_type;location;lat;lon;timestamp;pressure;altitude;pressure_sealevel;temperature;humidity
69855;BME280;57146;48.140;16.304;2022-08-03T00:00:25;99543.56;;;20.64;62.22
69855;BME280;57146;48.140;16.304;2022-08-03T00:02:52;99538.94;;;20.61;62.48
69855;BME280;57146;48.140;16.304;2022-08-03T00:05:19;99541.66;;;20.65;62.42
69855;BME280;57146;48.140;16.304;2022-08-03T00:07:46;99538.59;;;20.66;62.35
69855;BME280;57146;48.140;16.304;2022-08-03T00:10:15;99534.44;;;20.69;62.00
69855;BME280;57146;48.140;16.304;2022-08-03T00:12:42;99536.53;;;20.56;62.40
69855;BME280;57146;48.140;16.304;2022-08-03T00:15:10;99539.31;;;20.63;62.24
69855;BME280;57146;48.140;16.304;2022-08-03T00:17:43;99543.75;;;20.52;62.73
69855;BME280;57146;48.140;16.304;2022-08-03T00:20:23;99548.38;;;20.55;62.65
69855;BME280;57146;48.140;16.304;2022-08-03T00:22:50;99551.38;;;20.50;62.69
69855;BME280;57146;48.140;16.304;2022-08-03T00:25:17;99545.94;;;20.46;63.26
69855;BME280;57146;48.140;16.304;2022-08-03T00:27:44;99542.78;;;20.41;63.58
69855;BME280;57146;48.140;16.304;2022-08-03T00:30:14;99537.31;;;20.33;64.17
69855;BME280;57146;48.140;16.304;2022-08-03T00:32:43;99549.38;;;20.24;64.06
69855;BME280;57146;48.140;16.304;2022-08-03T00:35:11;99539.94;;;20.30;63.68
69855;BME280;57146;48.140;16.304;2022-08-03T00:37:58;99540.19;;;20.21;64.21
69855;BME280;57146;48.140;16.304;2022-08-03T00:40:25;99530.88;;;20.12;64.92
69855;BME280;57146;48.140;16.304;2022-08-03T00:42:56;99530.94;;;20.15;64.61
69855;BME280;57146;48.140;16.304;2022-08-03T00:45:28;99526.34;;;20.16;64.41
69855;BME280;57146;48.140;16.304;2022-08-03T00:47:57;99533.78;;;20.03;64.88
69855;BME280;57146;48.140;16.304;2022-08-03T00:50:27;99537.56;;;20.02;65.17
69855;BME280;57146;48.140;16.304;2022-08-03T00:52:57;99534.84;;;19.98;65.55
69855;BME280;57146;48.140;16.304;2022-08-03T00:55:25;99525.03;;;20.06;65.21
69855;BME280;57146;48.140;16.304;2022-08-03T00:57:52;99533.44;;;20.04;64.93
69855;BME280;57146;48.140;16.304;2022-08-03T01:00:22;99539.72;;;19.93;65.49
69855;BME280;57146;48.140;16.304;2022-08-03T01:02:50;99529.88;;;19.97;65.73
69855;BME280;57146;48.140;16.304;2022-08-03T01:05:18;99537.88;;;19.97;65.76
69855;BME280;57146;48.140;16.304;2022-08-03T01:08:05;99530.44;;;19.87;65.67
69855;BME280;57146;48.140;16.304;2022-08-03T01:16:35;99533.88;;;19.64;66.43
69855;BME280;57146;48.140;16.304;2022-08-03T01:19:40;99545.09;;;19.54;67.02
69855;BME280;57146;48.140;16.304;2022-08-03T01:30:43;99530.63;;;19.35;66.95
69855;BME280;57146;48.140;16.304;2022-08-03T01:33:16;99523.81;;;19.38;66.73
69855;BME280;57146;48.140;16.304;2022-08-03T01:35:53;99522.41;;;19.44;66.39
69855;BME280;57146;48.140;16.304;2022-08-03T01:38:28;99526.97;;;19.44;66.52
69855;BME280;57146;48.140;16.304;2022-08-03T01:41:06;99525.06;;;19.44;66.56
69855;BME280;57146;48.140;16.304;2022-08-03T01:43:36;99524.63;;;19.42;66.45
69855;BME280;57146;48.140;16.304;2022-08-03T01:46:27;99514.31;;;19.41;66.93
69855;BME280;57146;48.140;16.304;2022-08-03T01:48:55;99521.19;;;19.42;66.79
69855;BME280;57146;48.140;16.304;2022-08-03T01:51:23;99519.22;;;19.38;66.98
69855;BME280;57146;48.140;16.304;2022-08-03T01:54:11;99513.06;;;19.34;67.20
69855;BME280;57146;48.140;16.304;2022-08-03T01:56:40;99519.47;;;19.30;67.23
69855;BME280;57146;48.140;16.304;2022-08-03T01:59:10;99518.88;;;19.21;67.88
69855;BME280;57146;48.140;16.304;2022-08-03T02:01:39;99524.91;;;18.98;68.75
69855;BME280;57146;48.140;16.304;2022-08-03T02:04:27;99516.00;;;19.10;67.99
69855;BME280;57146;48.140;16.304;2022-08-03T02:06:56;99519.41;;;19.07;68.02
69855;BME280;57146;48.140;16.304;2022-08-03T02:09:29;99516.78;;;19.10;67.73
69855;BME280;57146;48.140;16.304;2022-08-03T02:11:57;99511.78;;;19.09;68.14
69855;BME280;57146;48.140;16.304;2022-08-03T02:14:25;99516.72;;;19.07;68.23
69855;BME280;57146;48.140;16.304;2022-08-03T02:16:54;99518.38;;;18.96;68.62
69855;BME280;57146;48.140;16.304;2022-08-03T02:19:23;99517.75;;;18.83;69.01
69855;BME280;57146;48.140;16.304;2022-08-03T02:21:52;99515.16;;;18.86;68.89
69855;BME280;57146;48.140;16.304;2022-08-03T02:24:27;99520.91;;;18.88;68.54
69855;BME280;57146;48.140;16.304;2022-08-03T02:26:55;99517.13;;;18.89;68.76
69855;BME280;57146;48.140;16.304;2022-08-03T02:29:25;99513.69;;;18.89;69.21
69855;BME280;57146;48.140;16.304;2022-08-03T02:32:11;99518.75;;;18.78;69.78
69855;BME280;57146;48.140;16.304;2022-08-03T02:34:44;99518.00;;;18.62;70.64
69855;BME280;57146;48.140;16.304;2022-08-03T02:37:12;99518.47;;;18.48;71.05
69855;BME280;57146;48.140;16.304;2022-08-03T02:39:41;99513.56;;;18.50;70.92
69855;BME280;57146;48.140;16.304;2022-08-03T02:42:10;99515.72;;;18.45;71.05
69855;BME280;57146;48.140;16.304;2022-08-03T02:44:41;99515.03;;;18.48;71.16
69855;BME280;57146;48.140;16.304;2022-08-03T02:47:11;99519.41;;;18.56;70.54
69855;BME280;57146;48.140;16.304;2022-08-03T02:49:40;99516.03;;;18.59;70.27
69855;BME280;57146;48.140;16.304;2022-08-03T02:52:24;99515.59;;;18.57;70.45
69855;BME280;57146;48.140;16.304;2022-08-03T02:54:56;99517.25;;;18.61;70.31
69855;BME280;57146;48.140;16.304;2022-08-03T02:57:27;99520.75;;;18.65;70.51
69855;BME280;57146;48.140;16.304;2022-08-03T02:59:56;99520.06;;;18.53;71.16
69855;BME280;57146;48.140;16.304;2022-08-03T03:02:24;99530.34;;;18.35;71.89
69855;BME280;57146;48.140;16.304;2022-08-03T03:04:54;99517.59;;;18.44;71.20
69855;BME280;57146;48.140;16.304;2022-08-03T03:07:42;99517.19;;;18.26;72.29
69855;BME280;57146;48.140;16.304;2022-08-03T03:10:20;99526.28;;;18.09;72.71
69855;BME280;57146;48.140;16.304;2022-08-03T03:12:51;99524.22;;;18.03;73.11
69855;BME280;57146;48.140;16.304;2022-08-03T03:15:19;99530.16;;;18.12;72.57
69855;BME280;57146;48.140;16.304;2022-08-03T03:17:48;99537.97;;;18.21;72.06
69855;BME280;57146;48.140;16.304;2022-08-03T03:20:16;99530.25;;;18.31;71.82
69855;BME280;57146;48.140;16.304;2022-08-03T03:22:58;99530.94;;;18.28;71.89
69855;BME280;57146;48.140;16.304;2022-08-03T03:25:27;99533.19;;;18.26;71.92
69855;BME280;57146;48.140;16.304;2022-08-03T03:27:57;99540.72;;;18.24;71.78
69855;BME280;57146;48.140;16.304;2022-08-03T03:30:25;99546.22;;;18.00;72.83
69855;BME280;57146;48.140;16.304;2022-08-03T03:32:53;99541.06;;;18.07;72.39
69855;BME280;57146;48.140;16.304;2022-08-03T03:35:20;99553.97;;;18.05;72.75
69855;BME280;57146;48.140;16.304;2022-08-03T03:37:47;99541.16;;;17.94;73.66
69855;BME280;57146;48.140;16.304;2022-08-03T03:40:14;99544.09;;;18.05;72.84
69855;BME280;57146;48.140;16.304;2022-08-03T03:42:41;99549.84;;;18.07;72.70
69855;BME280;57146;48.140;16.304;2022-08-03T03:45:09;99553.41;;;17.83;73.56
69855;BME280;57146;48.140;16.304;2022-08-03T03:47:36;99548.38;;;17.66;74.57
69855;BME280;57146;48.140;16.304;2022-08-03T03:50:05;99553.25;;;17.64;75.12
69855;BME280;57146;48.140;16.304;2022-08-03T03:52:32;99549.22;;;17.82;73.66
69855;BME280;57146;48.140;16.304;2022-08-03T03:55:00;99554.78;;;17.77;73.90
69855;BME280;57146;48.140;16.304;2022-08-03T03:57:28;99555.16;;;17.91;73.29
69855;BME280;57146;48.140;16.304;2022-08-03T03:59:55;99554.09;;;17.80;73.95
69855;BME280;57146;48.140;16.304;2022-08-03T04:02:22;99553.41;;;17.83;74.18
69855;BME280;57146;48.140;16.304;2022-08-03T04:04:49;99550.69;;;17.95;73.05
69855;BME280;57146;48.140;16.304;2022-08-03T04:07:17;99553.53;;;18.03;73.10
69855;BME280;57146;48.140;16.304;2022-08-03T04:09:45;99559.22;;;18.01;73.00
69855;BME280;57146;48.140;16.304;2022-08-03T04:12:14;99559.13;;;17.98;73.01
69855;BME280;57146;48.140;16.304;2022-08-03T04:14:45;99559.72;;;18.07;72.30
69855;BME280;57146;48.140;16.304;2022-08-03T04:17:15;99569.69;;;18.10;71.92
69855;BME280;57146;48.140;16.304;2022-08-03T04:19:48;99563.69;;;18.13;70.93
69855;BME280;57146;48.140;16.304;2022-08-03T04:22:17;99567.72;;;18.23;71.28
69855;BME280;57146;48.140;16.304;2022-08-03T04:24:59;99572.03;;;18.11;72.58
69855;BME280;57146;48.140;16.304;2022-08-03T04:27:31;99574.50;;;18.04;72.87
69855;BME280;57146;48.140;16.304;2022-08-03T04:30:02;99577.63;;;18.22;71.87
69855;BME280;57146;48.140;16.304;2022-08-03T04:32:29;99574.28;;;18.25;71.84
69855;BME280;57146;48.140;16.304;2022-08-03T04:34:56;99570.31;;;18.19;72.69
69855;BME280;57146;48.140;16.304;2022-08-03T04:39:57;99576.22;;;18.12;73.21
69855;BME280;57146;48.140;16.304;2022-08-03T04:42:28;99582.69;;;18.27;71.91
69855;BME280;57146;48.140;16.304;2022-08-03T04:44:57;99579.06;;;18.35;71.82
69855;BME280;57146;48.140;16.304;2022-08-03T04:47:30;99587.06;;;18.35;72.08
69855;BME280;57146;48.140;16.304;2022-08-03T04:50:00;99584.41;;;18.35;71.78
69855;BME280;57146;48.140;16.304;2022-08-03T04:52:27;99585.69;;;18.41;71.85
69855;BME280;57146;48.140;16.304;2022-08-03T04:54:54;99585.69;;;18.41;72.12
69855;BME280;57146;48.140;16.304;2022-08-03T04:57:21;99595.84;;;18.36;72.63
69855;BME280;57146;48.140;16.304;2022-08-03T04:59:53;99592.16;;;18.40;72.69
69855;BME280;57146;48.140;16.304;2022-08-03T05:02:27;99590.44;;;18.48;72.31
69855;BME280;57146;48.140;16.304;2022-08-03T05:04:54;99590.59;;;18.55;71.53
69855;BME280;57146;48.140;16.304;2022-08-03T05:07:21;99591.72;;;18.54;72.08
69855;BME280;57146;48.140;16.304;2022-08-03T05:09:51;99590.41;;;18.64;70.95
69855;BME280;57146;48.140;16.304;2022-08-03T05:12:29;99592.75;;;18.65;71.39
69855;BME280;57146;48.140;16.304;2022-08-03T05:14:59;99592.06;;;18.69;70.23
69855;BME280;57146;48.140;16.304;2022-08-03T05:17:27;99596.03;;;18.75;69.64
69855;BME280;57146;48.140;16.304;2022-08-03T05:19:55;99595.00;;;18.79;69.67
69855;BME280;57146;48.140;16.304;2022-08-03T05:22:22;99594.72;;;18.84;70.37
69855;BME280;57146;48.140;16.304;2022-08-03T05:24:49;99596.38;;;18.89;69.40
69855;BME280;57146;48.140;16.304;2022-08-03T05:27:16;99600.66;;;18.94;69.40
69855;BME280;57146;48.140;16.304;2022-08-03T05:29:50;99606.47;;;18.99;68.66
69855;BME280;57146;48.140;16.304;2022-08-03T05:32:17;99609.59;;;19.01;68.70
69855;BME280;57146;48.140;16.304;2022-08-03T05:34:44;99606.63;;;19.06;68.46
69855;BME280;57146;48.140;16.304;2022-08-03T05:37:11;99603.34;;;19.13;68.54
69855;BME280;57146;48.140;16.304;2022-08-03T05:39:38;99598.16;;;19.20;68.73
69855;BME280;57146;48.140;16.304;2022-08-03T05:42:05;99602.97;;;19.30;68.20
69855;BME280;57146;48.140;16.304;2022-08-03T05:44:32;99607.31;;;19.38;68.53
69855;BME280;57146;48.140;16.304;2022-08-03T05:46:59;99601.44;;;19.49;67.36
69855;BME280;57146;48.140;16.304;2022-08-03T05:49:26;99608.13;;;19.58;66.50
69855;BME280;57146;48.140;16.304;2022-08-03T05:51:53;99610.25;;;19.69;66.37
69855;BME280;57146;48.140;16.304;2022-08-03T05:54:40;99604.69;;;19.77;66.03
69855;BME280;57146;48.140;16.304;2022-08-03T05:57:24;99601.50;;;19.91;65.69
69855;BME280;57146;48.140;16.304;2022-08-03T05:59:51;99608.13;;;19.97;64.97
69855;BME280;57146;48.140;16.304;2022-08-03T06:02:25;99600.66;;;20.06;64.46
69855;BME280;57146;48.140;16.304;2022-08-03T06:04:52;99601.25;;;20.19;64.52
69855;BME280;57146;48.140;16.304;2022-08-03T06:07:19;99605.94;;;20.26;64.37
69855;BME280;57146;48.140;16.304;2022-08-03T06:09:46;99603.41;;;20.33;63.95
69855;BME280;57146;48.140;16.304;2022-08-03T06:12:33;99600.06;;;20.40;63.86
69855;BME280;57146;48.140;16.304;2022-08-03T06:15:01;99595.56;;;20.44;63.21
69855;BME280;57146;48.140;16.304;2022-08-03T06:17:28;99589.19;;;20.52;64.42
69855;BME280;57146;48.140;16.304;2022-08-03T06:20:04;99594.38;;;20.64;64.37
69855;BME280;57146;48.140;16.304;2022-08-03T06:22:31;99598.03;;;20.79;63.48
69855;BME280;57146;48.140;16.304;2022-08-03T06:24:58;99600.09;;;20.89;64.91
69855;BME280;57146;48.140;16.304;2022-08-03T06:27:30;99596.81;;;20.99;63.04
69855;BME280;57146;48.140;16.304;2022-08-03T06:30:04;99604.59;;;21.12;62.34
69855;BME280;57146;48.140;16.304;2022-08-03T06:32:31;99611.25;;;21.21;62.20
69855;BME280;57146;48.140;16.304;2022-08-03T06:34:59;99609.97;;;21.38;61.60
69855;BME280;57146;48.140;16.304;2022-08-03T06:37:26;99613.50;;;21.46;61.07
69855;BME280;57146;48.140;16.304;2022-08-03T06:39:52;99611.00;;;21.60;59.59
69855;BME280;57146;48.140;16.304;2022-08-03T06:42:20;99605.72;;;21.67;60.26
69855;BME280;57146;48.140;16.304;2022-08-03T06:44:48;99603.91;;;21.79;58.12
69855;BME280;57146;48.140;16.304;2022-08-03T06:47:15;99609.00;;;21.91;59.21
69855;BME280;57146;48.140;16.304;2022-08-03T06:49:42;99613.41;;;22.06;57.78
69855;BME280;57146;48.140;16.304;2022-08-03T06:52:29;99610.84;;;22.17;57.65
69855;BME280;57146;48.140;16.304;2022-08-03T06:55:05;99614.81;;;22.34;59.23
69855;BME280;57146;48.140;16.304;2022-08-03T06:57:32;99616.81;;;22.44;57.73
69855;BME280;57146;48.140;16.304;2022-08-03T06:59:59;99608.88;;;22.58;57.98
69855;BME280;57146;48.140;16.304;2022-08-03T07:02:38;99611.28;;;22.70;56.94
69855;BME280;57146;48.140;16.304;2022-08-03T07:05:06;99606.28;;;22.69;54.67
69855;BME280;57146;48.140;16.304;2022-08-03T07:07:33;99613.59;;;22.76;55.43
69855;BME280;57146;48.140;16.304;2022-08-03T07:10:00;99614.41;;;22.83;56.10
69855;BME280;57146;48.140;16.304;2022-08-03T07:12:28;99616.84;;;22.96;55.80
69855;BME280;57146;48.140;16.304;2022-08-03T07:14:57;99619.91;;;22.98;54.81
69855;BME280;57146;48.140;16.304;2022-08-03T07:17:31;99615.38;;;23.05;54.21
69855;BME280;57146;48.140;16.304;2022-08-03T07:19:59;99613.16;;;23.22;55.76
69855;BME280;57146;48.140;16.304;2022-08-03T07:22:26;99613.97;;;23.36;54.47
69855;BME280;57146;48.140;16.304;2022-08-03T07:24:54;99614.78;;;23.44;53.73
69855;BME280;57146;48.140;16.304;2022-08-03T07:27:21;99615.59;;;23.48;52.36
69855;BME280;57146;48.140;16.304;2022-08-03T07:29:49;99614.44;;;23.56;52.42
69855;BME280;57146;48.140;16.304;2022-08-03T07:32:15;99614.47;;;23.60;51.23
69855;BME280;57146;48.140;16.304;2022-08-03T07:34:43;99618.75;;;23.75;53.23
69855;BME280;57146;48.140;16.304;2022-08-03T07:37:10;99619.56;;;23.90;51.46
69855;BME280;57146;48.140;16.304;2022-08-03T07:39:36;99609.59;;;23.98;51.63
69855;BME280;57146;48.140;16.304;2022-08-03T07:42:03;99610.41;;;24.12;51.29
69855;BME280;57146;48.140;16.304;2022-08-03T07:44:30;99606.97;;;24.26;51.77
69855;BME280;57146;48.140;16.304;2022-08-03T07:46:57;99605.03;;;24.30;50.56
69855;BME280;57146;48.140;16.304;2022-08-03T07:49:29;99598.91;;;24.41;49.43
69855;BME280;57146;48.140;16.304;2022-08-03T07:51:56;99608.13;;;24.50;49.66
69855;BME280;57146;48.140;16.304;2022-08-03T07:54:23;99601.97;;;24.64;48.74
69855;BME280;57146;48.140;16.304;2022-08-03T07:56:50;99589.66;;;24.74;48.44
69855;BME280;57146;48.140;16.304;2022-08-03T07:59:16;99606.16;;;24.90;48.55
69855;BME280;57146;48.140;16.304;2022-08-03T08:01:43;99593.44;;;25.01;47.48
69855;BME280;57146;48.140;16.304;2022-08-03T08:04:10;99599.94;;;25.07;47.91
69855;BME280;57146;48.140;16.304;2022-08-03T08:06:37;99608.03;;;25.18;47.40
69855;BME280;57146;48.140;16.304;2022-08-03T08:09:04;99607.25;;;25.21;46.48
69855;BME280;57146;48.140;16.304;2022-08-03T08:11:31;99610.31;;;25.34;46.15
69855;BME280;57146;48.140;16.304;2022-08-03T08:14:04;99606.78;;;25.48;46.22
69855;BME280;57146;48.140;16.304;2022-08-03T08:16:31;99602.09;;;25.59;44.74
69855;BME280;57146;48.140;16.304;2022-08-03T08:18:57;99610.50;;;25.72;44.84
69855;BME280;57146;48.140;16.304;2022-08-03T08:21:24;99601.25;;;25.76;45.41
69855;BME280;57146;48.140;16.304;2022-08-03T08:24:11;99597.34;;;25.88;45.71
69855;BME280;57146;48.140;16.304;2022-08-03T08:26:45;99606.19;;;25.92;45.17
69855;BME280;57146;48.140;16.304;2022-08-03T08:29:12;99602.66;;;25.99;44.75
69855;BME280;57146;48.140;16.304;2022-08-03T08:31:39;99605.34;;;26.02;43.53
69855;BME280;57146;48.140;16.304;2022-08-03T08:34:05;99599.91;;;26.06;42.81
69855;BME280;57146;48.140;16.304;2022-08-03T08:36:34;99596.44;;;26.09;43.02
69855;BME280;57146;48.140;16.304;2022-08-03T08:39:01;99601.38;;;26.18;42.58
69855;BME280;57146;48.140;16.304;2022-08-03T08:41:28;99602.53;;;26.20;40.59
69855;BME280;57146;48.140;16.304;2022-08-03T08:43:58;99599.03;;;26.23;41.05
69855;BME280;57146;48.140;16.304;2022-08-03T08:46:25;99594.75;;;26.30;41.09
69855;BME280;57146;48.140;16.304;2022-08-03T08:48:54;99592.78;;;26.34;40.93
69855;BME280;57146;48.140;16.304;2022-08-03T08:51:27;99593.13;;;26.36;41.05
69855;BME280;57146;48.140;16.304;2022-08-03T08:54:17;99597.75;;;26.39;40.87
69855;BME280;57146;48.140;16.304;2022-08-03T08:56:48;99595.88;;;26.32;41.65
69855;BME280;57146;48.140;16.304;2022-08-03T08:59:17;99598.84;;;26.45;41.83
69855;BME280;57146;48.140;16.304;2022-08-03T09:01:44;99598.41;;;26.54;40.74
69855;BME280;57146;48.140;16.304;2022-08-03T09:04:12;99598.41;;;26.54;40.83
69855;BME280;57146;48.140;16.304;2022-08-03T09:06:39;99591.06;;;26.58;40.50
69855;BME280;57146;48.140;16.304;2022-08-03T09:09:05;99590.19;;;26.68;40.13
69855;BME280;57146;48.140;16.304;2022-08-03T09:11:32;99591.63;;;26.80;39.83
69855;BME280;57146;48.140;16.304;2022-08-03T09:14:20;99594.63;;;26.85;39.26
69855;BME280;57146;48.140;16.304;2022-08-03T09:17:07;99588.34;;;26.95;38.06
69855;BME280;57146;48.140;16.304;2022-08-03T09:20:03;99591.31;;;27.12;39.46
69855;BME280;57146;48.140;16.304;2022-08-03T09:22:30;99588.94;;;27.14;38.30
69855;BME280;57146;48.140;16.304;2022-08-03T09:25:02;99585.78;;;27.23;38.87
69855;BME280;57146;48.140;16.304;2022-08-03T09:27:49;99594.94;;;27.32;38.94
69855;BME280;57146;48.140;16.304;2022-08-03T09:30:17;99587.94;;;27.35;39.14
69855;BME280;57146;48.140;16.304;2022-08-03T09:33:05;99581.56;;;27.49;38.10
69855;BME280;57146;48.140;16.304;2022-08-03T09:35:45;99576.44;;;27.58;38.46
69855;BME280;57146;48.140;16.304;2022-08-03T09:40:47;99576.06;;;27.56;37.23
69855;BME280;57146;48.140;16.304;2022-08-03T09:43:15;99572.56;;;27.59;37.07
69855;BME280;57146;48.140;16.304;2022-08-03T09:45:43;99562.03;;;27.68;36.73
69855;BME280;57146;48.140;16.304;2022-08-03T09:48:27;99562.72;;;27.72;37.28
69855;BME280;57146;48.140;16.304;2022-08-03T09:50:56;99566.59;;;27.71;35.85
69855;BME280;57146;48.140;16.304;2022-08-03T09:53:45;99559.53;;;27.81;35.69
69855;BME280;57146;48.140;16.304;2022-08-03T09:56:46;99556.44;;;27.82;35.21
69855;BME280;57146;48.140;16.304;2022-08-03T09:59:24;99559.84;;;27.86;34.44
69855;BME280;57146;48.140;16.304;2022-08-03T10:01:53;99560.06;;;27.96;35.50
69855;BME280;57146;48.140;16.304;2022-08-03T10:04:21;99551.66;;;27.90;31.98
69855;BME280;57146;48.140;16.304;2022-08-03T10:07:06;99548.97;;;27.90;32.78
69855;BME280;57146;48.140;16.304;2022-08-03T10:09:37;99546.22;;;27.93;32.97
69855;BME280;57146;48.140;16.304;2022-08-03T10:12:08;99546.22;;;27.93;34.04
69855;BME280;57146;48.140;16.304;2022-08-03T10:14:40;99545.50;;;28.13;33.96
69855;BME280;57146;48.140;16.304;2022-08-03T10:17:10;99538.91;;;28.14;33.74
69855;BME280;57146;48.140;16.304;2022-08-03T10:19:38;99538.84;;;28.17;34.32
69855;BME280;57146;48.140;16.304;2022-08-03T10:22:13;99531.50;;;28.18;34.63
69855;BME280;57146;48.140;16.304;2022-08-03T10:25:13;99533.03;;;28.19;32.47
69855;BME280;57146;48.140;16.304;2022-08-03T10:27:45;99533.28;;;28.28;32.87
69855;BME280;57146;48.140;16.304;2022-08-03T10:30:13;99533.66;;;28.27;32.81
69855;BME280;57146;48.140;16.304;2022-08-03T10:32:51;99528.13;;;28.34;32.83
69855;BME280;57146;48.140;16.304;2022-08-03T10:35:21;99517.66;;;28.36;32.47
69855;BME280;57146;48.140;16.304;2022-08-03T10:38:01;99524.31;;;28.31;32.29
69855;BME280;57146;48.140;16.304;2022-08-03T10:40:30;99520.34;;;28.39;32.08
69855;BME280;57146;48.140;16.304;2022-08-03T10:43:21;99527.63;;;28.43;32.35
69855;BME280;57146;48.140;16.304;2022-08-03T10:45:51;99524.06;;;28.46;31.52
69855;BME280;57146;48.140;16.304;2022-08-03T10:48:19;99518.53;;;28.53;30.16
69855;BME280;57146;48.140;16.304;2022-08-03T10:50:48;99515.88;;;28.49;30.86
69855;BME280;57146;48.140;16.304;2022-08-03T10:53:15;99514.38;;;28.48;30.27
69855;BME280;57146;48.140;16.304;2022-08-03T10:55:45;99509.44;;;28.43;29.53
69855;BME280;57146;48.140;16.304;2022-08-03T10:58:12;99507.19;;;28.38;28.72
69855;BME280;57146;48.140;16.304;2022-08-03T11:00:56;99513.38;;;28.38;30.84
69855;BME280;57146;48.140;16.304;2022-08-03T11:03:23;99505.97;;;28.43;30.32
69855;BME280;57146;48.140;16.304;2022-08-03T11:05:50;99504.31;;;28.49;29.72
69855;BME280;57146;48.140;16.304;2022-08-03T11:11:01;99501.19;;;28.50;30.32
69855;BME280;57146;48.140;16.304;2022-08-03T11:13:29;99497.72;;;28.50;29.77
69855;BME280;57146;48.140;16.304;2022-08-03T11:15:58;99491.94;;;28.48;28.50
69855;BME280;57146;48.140;16.304;2022-08-03T11:18:30;99492.31;;;28.50;28.25
69855;BME280;57146;48.140;16.304;2022-08-03T11:20:58;99493.84;;;28.51;28.87
69855;BME280;57146;48.140;16.304;2022-08-03T11:23:44;99489.59;;;28.50;27.36
69855;BME280;57146;48.140;16.304;2022-08-03T11:26:33;99482.03;;;28.61;27.05
69855;BME280;57146;48.140;16.304;2022-08-03T11:29:25;99489.59;;;28.50;28.61
69855;BME280;57146;48.140;16.304;2022-08-03T11:31:53;99477.97;;;28.49;28.72
69855;BME280;57146;48.140;16.304;2022-08-03T11:34:20;99484.13;;;28.53;28.63
69855;BME280;57146;48.140;16.304;2022-08-03T11:37:18;99482.72;;;28.65;29.06
69855;BME280;57146;48.140;16.304;2022-08-03T11:39:49;99480.84;;;28.62;28.78
69855;BME280;57146;48.140;16.304;2022-08-03T11:44:51;99473.84;;;28.64;28.48
69855;BME280;57146;48.140;16.304;2022-08-03T11:47:20;99470.34;;;29.04;28.06
69855;BME280;57146;48.140;16.304;2022-08-03T11:49:49;99479.16;;;28.88;27.97
69855;BME280;57146;48.140;16.304;2022-08-03T11:52:17;99469.59;;;29.03;26.13
69855;BME280;57146;48.140;16.304;2022-08-03T11:54:45;99472.22;;;29.07;26.96
69855;BME280;57146;48.140;16.304;2022-08-03T11:57:30;99462.59;;;29.22;26.08
69855;BME280;57146;48.140;16.304;2022-08-03T12:03:00;99458.44;;;29.18;26.70
69855;BME280;57146;48.140;16.304;2022-08-03T12:05:37;99453.25;;;29.23;26.29
69855;BME280;57146;48.140;16.304;2022-08-03T12:08:05;99447.44;;;29.41;26.55
69855;BME280;57146;48.140;16.304;2022-08-03T12:10:33;99449.09;;;29.71;26.08
69855;BME280;57146;48.140;16.304;2022-08-03T12:13:02;99457.91;;;29.59;26.60
69855;BME280;57146;48.140;16.304;2022-08-03T12:15:31;99447.88;;;29.40;26.50
69855;BME280;57146;48.140;16.304;2022-08-03T12:17:59;99451.00;;;29.38;27.08
69855;BME280;57146;48.140;16.304;2022-08-03T12:20:28;99449.72;;;29.26;27.03
69855;BME280;57146;48.140;16.304;2022-08-03T12:23:04;99450.22;;;29.21;27.55
69855;BME280;57146;48.140;16.304;2022-08-03T12:25:33;99441.75;;;29.19;27.45
69855;BME280;57146;48.140;16.304;2022-08-03T12:28:11;99442.19;;;29.18;27.11
69855;BME280;57146;48.140;16.304;2022-08-03T12:31:07;99442.59;;;29.16;27.53
69855;BME280;57146;48.140;16.304;2022-08-03T12:34:02;99439.19;;;29.12;26.91
69855;BME280;57146;48.140;16.304;2022-08-03T12:36:32;99431.91;;;29.09;27.00
69855;BME280;57146;48.140;16.304;2022-08-03T12:39:02;99434.22;;;29.10;27.29
69855;BME280;57146;48.140;16.304;2022-08-03T12:41:31;99445.13;;;29.07;26.34
69855;BME280;57146;48.140;16.304;2022-08-03T12:44:01;99433.94;;;29.05;26.59
69855;BME280;57146;48.140;16.304;2022-08-03T12:46:33;99443.75;;;28.99;26.38
69855;BME280;57146;48.140;16.304;2022-08-03T12:49:09;99426.00;;;28.94;25.45
69855;BME280;57146;48.140;16.304;2022-08-03T12:51:56;99426.16;;;29.07;24.53
69855;BME280;57146;48.140;16.304;2022-08-03T12:54:28;99422.75;;;29.03;26.14
69855;BME280;57146;48.140;16.304;2022-08-03T12:57:21;99419.00;;;28.97;26.60
69855;BME280;57146;48.140;16.304;2022-08-03T12:59:49;99414.75;;;28.96;26.35
69855;BME280;57146;48.140;16.304;2022-08-03T13:02:24;99413.22;;;28.95;27.41
69855;BME280;57146;48.140;16.304;2022-08-03T13:04:53;99410.09;;;28.96;26.44
69855;BME280;57146;48.140;16.304;2022-08-03T13:07:21;99411.19;;;29.35;25.40
69855;BME280;57146;48.140;16.304;2022-08-03T13:09:51;99402.13;;;29.25;25.52
69855;BME280;57146;48.140;16.304;2022-08-03T13:12:20;99405.75;;;29.19;26.69
69855;BME280;57146;48.140;16.304;2022-08-03T13:14:49;99398.53;;;29.12;26.79
69855;BME280;57146;48.140;16.304;2022-08-03T13:17:17;99401.69;;;29.10;27.82
69855;BME280;57146;48.140;16.304;2022-08-03T13:19:45;99395.66;;;29.19;27.82
69855;BME280;57146;48.140;16.304;2022-08-03T13:22:24;99398.22;;;29.26;27.85
69855;BME280;57146;48.140;16.304;2022-08-03T13:24:53;99396.94;;;29.31;27.95
69855;BME280;57146;48.140;16.304;2022-08-03T13:27:20;99399.56;;;29.34;28.35
69855;BME280;57146;48.140;16.304;2022-08-03T13:30:07;99400.59;;;29.41;28.61
69855;BME280;57146;48.140;16.304;2022-08-03T13:32:35;99401.03;;;29.39;28.11
69855;BME280;57146;48.140;16.304;2022-08-03T13:35:03;99392.38;;;29.44;28.32
69855;BME280;57146;48.140;16.304;2022-08-03T13:37:30;99395.69;;;29.35;27.85
69855;BME280;57146;48.140;16.304;2022-08-03T13:39:58;99400.25;;;29.39;28.09